LFOE

Évreux-Fauville (BA 105) Air Base

Airport
ICAO code
LFOE
Summary
ICAO Region
EUR
ICAO Territory
Location

, Haute-Normandie

Serving
Evreux
Elevation
464 ft
Coordinates
49° 1' 43" N , 1° 13' 12" E
Metar
Observation
LFOE 091930Z AUTO 31004KT 0500 0450 R22/0600N FZFG VV/// M01/M01 Q1007 NOSIG
Station
Evreux
Date/Time
2022-12-09 19:30:00
Wind direction
310°
Wind speed
04 kts
Lowest cloud amount
n/a
Temperature
22°C
Dew point
0°C
Humidity
23%
QNH
1007 hPa
Weather condition
n/a

Runways

Designator Length Width Surface Rops
4/22 2995 45 ASP No/No

Airport map

Aerial View

SKYbrary Partners:

Safety knowledge contributed by: